Reecon Whale — 9HA2885 — position and weather

sailwx.info

Track history (hours):
 
Tides and Currents Weather Stations Pressure Air Temp Water Temp Dewpoint Dewpoint Depression Visibility Wind Speed Wind Dir Waves Ship Positions

Reecon Whale

Last reported at 2014-Aug-01 16:34 UTC. Time now 2014-Aug-02 08:40 UTC.
Position N 35°59' W 005°24'.

Length 145 m; draft 8.1 m.

Type: Ship. MMSI: 256579000.

Date/timePositionNaut miles runAvg speedWind from/ knotsBaromVisibWave heightAir tempDewpointWater temp
2014-Aug-01 16:34N 35°59' W 005°24'17212.3
2014-Aug-01 02:31N 36°29' W 008°54'1212.2
2014-Aug-01 01:33N 36°32' W 009°08'1212.2
2014-Aug-01 00:33N 36°38' W 009°22'1212.3
2014-Jul-31 23:33N 36°47' W 009°32'1312.7
2014-Jul-31 22:33N 36°59' W 009°36'1212.4
2014-Jul-31 21:33N 37°12' W 009°34'1212.2
2014-Jul-31 20:33N 37°24' W 009°33'1212.3
2014-Jul-31 19:33N 37°36' W 009°31'1212.2
2014-Jul-31 18:33N 37°48' W 009°30'1212.1
2014-Jul-31 17:33N 38°00' W 009°28'1312.7
2014-Jul-31 16:33N 38°13' W 009°26'1212.5
2014-Jul-31 15:33N 38°25' W 009°25'1212.1
2014-Jul-31 14:33N 38°37' W 009°23'1010.2
2014-Jul-31 13:33N 38°42' W 009°11'1 0.9
2014-Jul-31 12:32N 38°42' W 009°10'0 0.0
2014-Jul-31 11:32N 38°42' W 009°10'0 0.0
2014-Jul-31 10:32N 38°42' W 009°10'0 0.0
2014-Jul-31 09:32N 38°42' W 009°10'0 0.0
2014-Jul-31 08:32N 38°42' W 009°10'0 0.0
2014-Jul-31 07:32N 38°42' W 009°10'0 0.0
2014-Jul-31 06:32N 38°42' W 009°10'0 0.0
2014-Jul-31 05:32N 38°42' W 009°10'0 0.0
2014-Jul-31 04:32N 38°42' W 009°10'0 0.0
2014-Jul-31 03:32N 38°42' W 009°10'0 0.0
2014-Jul-31 02:32N 38°42' W 009°10'0 0.0
2014-Jul-31 01:32N 38°42' W 009°10'0 0.0
2014-Jul-31 00:32N 38°42' W 009°10'0 0.0
2014-Jul-30 23:32N 38°42' W 009°10'0 0.0
2014-Jul-30 22:32N 38°42' W 009°10'0 0.0
2014-Jul-30 21:32N 38°42' W 009°10'0 0.0
2014-Jul-30 20:32N 38°42' W 009°10'0 0.0
2014-Jul-30 19:32N 38°42' W 009°10'0 0.0
2014-Jul-30 18:32N 38°42' W 009°10'0 0.0
2014-Jul-30 17:32N 38°42' W 009°10'0 0.0
2014-Jul-30 16:32N 38°42' W 009°10'0 0.0
2014-Jul-30 15:32N 38°42' W 009°10'0 0.0
2014-Jul-30 14:32N 38°42' W 009°10'0 0.0
2014-Jul-30 13:32N 38°42' W 009°10'1 0.8
2014-Jul-30 12:33N 38°41' W 009°11'9 9.4
2014-Jul-30 11:33N 38°38' W 009°22'1212.2
2014-Jul-30 10:33N 38°38' W 009°37'1111.1
2014-Jul-30 09:34N 38°48' W 009°44'1414.3
2014-Jul-30 08:33N 39°02' W 009°44'1413.5
2014-Jul-30 07:33N 39°16' W 009°44'1211.8
2014-Jul-30 06:33N 39°28' W 009°44'2411.9
2014-Jul-30 04:33N 39°50' W 009°33'11 0.5
2014-Jul-29 06:07N 40°00' W 009°32'8 7.9
2014-Jul-29 05:10N 39°54' W 009°37'7 7.7
2014-Jul-29 04:13N 39°47' W 009°40'6 7.9
2014-Jul-29 03:30N 39°42' W 009°42'10 8.2
2014-Jul-29 02:16N 39°33' W 009°48'8 8.7
2014-Jul-29 01:24N 39°25' W 009°50'8 9.9
2014-Jul-29 00:32N 39°17' W 009°50'1010.1
2014-Jul-28 23:33N 39°07' W 009°50'1110.4
2014-Jul-28 22:32N 38°56' W 009°51'1010.1
2014-Jul-28 21:33N 38°46' W 009°52'1010.0
2014-Jul-28 20:30N 38°36' W 009°49'1010.5
2014-Jul-28 19:33N 38°26' W 009°46'1110.5
2014-Jul-28 18:33N 38°16' W 009°43'1111.0
2014-Jul-28 17:33N 38°05' W 009°40'1110.6
2014-Jul-28 16:33N 37°55' W 009°37'1111.1
2014-Jul-28 15:33N 37°44' W 009°34'1111.4
2014-Jul-28 14:33N 37°33' W 009°31'1211.4
2014-Jul-28 13:31N 37°22' W 009°27'1311.0
2014-Jul-28 12:20N 37°09' W 009°23'810.9
2014-Jul-28 11:33N 37°01' W 009°21'1110.8
2014-Jul-28 10:32N 36°50' W 009°16'1111.0
2014-Jul-28 09:33N 36°43' W 009°06'1111.1
2014-Jul-28 08:33N 36°40' W 008°53'1111.0
2014-Jul-28 07:33N 36°36' W 008°40'1110.8
2014-Jul-28 06:33N 36°33' W 008°27'1210.9
2014-Jul-28 05:29N 36°30' W 008°13'1110.7
2014-Jul-28 04:26N 36°26' W 008°00'1010.8
2014-Jul-28 03:30N 36°23' W 007°48'1110.6
2014-Jul-28 02:29N 36°20' W 007°35'1510.8
2014-Jul-28 01:05N 36°15' W 007°17'811.4
2014-Jul-28 00:24N 36°12' W 007°08'1011.5
2014-Jul-27 23:33N 36°10' W 006°57'1111.4
2014-Jul-27 22:33N 36°07' W 006°43'1111.3
2014-Jul-27 21:33N 36°03' W 006°30'1611.0
2014-Jul-27 20:05N 35°58' W 006°11'810.2
2014-Jul-27 19:17N 35°58' W 006°01'42 0.9
2014-Jul-25 18:28N 36°06' W 005°11'10 5.1
2014-Jul-25 16:33N 36°02' W 005°21'1313.3
2014-Jul-25 15:33N 35°55' W 005°36'1414.4
2014-Jul-25 14:33N 35°54' W 005°53'1513.4
2014-Jul-25 13:26N 35°53' W 006°12'1213.1
2014-Jul-25 12:30N 35°56' W 006°26'1312.2
2014-Jul-25 11:24N 35°60' W 006°42'1311.9
2014-Jul-25 10:18N 36°03' W 006°58'1211.7
2014-Jul-25 09:14N 36°07' W 007°13'811.6
2014-Jul-25 08:33N 36°09' W 007°22'8211.7
2014-Jul-25 01:33N 36°30' W 009°01'1212.0
2014-Jul-25 00:32N 36°33' W 009°15'1211.7
2014-Jul-24 23:31N 36°42' W 009°26'1211.6
2014-Jul-24 22:27N 36°52' W 009°33'1312.4
2014-Jul-24 21:22N 37°06' W 009°35'1412.6
2014-Jul-24 20:13N 37°20' W 009°33'912.6
2014-Jul-24 19:29N 37°30' W 009°32'1213.0
2014-Jul-24 18:33N 37°42' W 009°31'1413.3
2014-Jul-24 17:28N 37°56' W 009°29'1112.3
2014-Jul-24 16:33N 38°07' W 009°27'1211.9
2014-Jul-24 15:33N 38°19' W 009°26'1212.4
2014-Jul-24 14:33N 38°31' W 009°24'1111.4
2014-Jul-24 13:33N 38°41' W 009°17'6 5.5
2014-Jul-24 12:33N 38°42' W 009°10'0 0.0
2014-Jul-24 11:29N 38°42' W 009°10'0 0.0
2014-Jul-24 10:32N 38°42' W 009°10'0 0.0
2014-Jul-24 09:33N 38°42' W 009°10'0 0.0
2014-Jul-24 08:33N 38°42' W 009°10'0 0.0
2014-Jul-24 07:33N 38°42' W 009°10'0 0.0
2014-Jul-24 06:30N 38°42' W 009°10'0 0.0
2014-Jul-24 05:33N 38°42' W 009°10'0 0.0
2014-Jul-24 04:33N 38°42' W 009°10'0 0.0
2014-Jul-24 03:32N 38°42' W 009°10'0 0.0
2014-Jul-24 02:32N 38°42' W 009°10'0 0.0
2014-Jul-24 01:33N 38°42' W 009°10'0 0.0
2014-Jul-24 00:33N 38°42' W 009°10'0 0.0
2014-Jul-23 23:30N 38°42' W 009°10'0 0.0
2014-Jul-23 22:30N 38°42' W 009°10'0 0.0
2014-Jul-23 21:33N 38°42' W 009°10'0 0.0
2014-Jul-23 20:33N 38°42' W 009°10'0 0.0
2014-Jul-23 19:32N 38°42' W 009°10'0 0.0
2014-Jul-23 18:33N 38°42' W 009°10'0 0.0
2014-Jul-23 17:33N 38°42' W 009°10'0 0.0
2014-Jul-23 16:33N 38°42' W 009°10'0 0.4
2014-Jul-23 15:33N 38°42' W 009°10'9 9.1
2014-Jul-23 14:33N 38°38' W 009°21'1212.5
2014-Jul-23 13:33N 38°38' W 009°37'1211.3
2014-Jul-23 12:29N 38°49' W 009°44'1513.7
2014-Jul-23 11:22N 39°04' W 009°44'1113.4
2014-Jul-23 10:33N 39°15' W 009°44'1413.1
2014-Jul-23 09:31N 39°29' W 009°44'2611.9
2014-Jul-23 07:19N 39°53' W 009°31'  
Track history (hours):
 
Tides and Currents Weather Stations Pressure Air Temp Water Temp Dewpoint Dewpoint Depression Visibility Wind Speed Wind Dir Waves Ship Positions

Reecon Whale

Last reported at 2014-Aug-01 16:34 UTC. Time now 2014-Aug-02 08:40 UTC.
Position N 35°59' W 005°24'.

Length 145 m; draft 8.1 m.

Type: Ship. MMSI: 256579000.

Date/timePositionNaut miles runAvg speedWind from/ knotsBaromVisibWave heightAir tempDewpointWater temp
2014-Aug-01 16:34N 35°59' W 005°24'17212.3
2014-Aug-01 02:31N 36°29' W 008°54'1212.2
2014-Aug-01 01:33N 36°32' W 009°08'1212.2
2014-Aug-01 00:33N 36°38' W 009°22'1212.3
2014-Jul-31 23:33N 36°47' W 009°32'1312.7
2014-Jul-31 22:33N 36°59' W 009°36'1212.4
2014-Jul-31 21:33N 37°12' W 009°34'1212.2
2014-Jul-31 20:33N 37°24' W 009°33'1212.3
2014-Jul-31 19:33N 37°36' W 009°31'1212.2
2014-Jul-31 18:33N 37°48' W 009°30'1212.1
2014-Jul-31 17:33N 38°00' W 009°28'1312.7
2014-Jul-31 16:33N 38°13' W 009°26'1212.5
2014-Jul-31 15:33N 38°25' W 009°25'1212.1
2014-Jul-31 14:33N 38°37' W 009°23'1010.2
2014-Jul-31 13:33N 38°42' W 009°11'1 0.9
2014-Jul-31 12:32N 38°42' W 009°10'0 0.0
2014-Jul-31 11:32N 38°42' W 009°10'0 0.0
2014-Jul-31 10:32N 38°42' W 009°10'0 0.0
2014-Jul-31 09:32N 38°42' W 009°10'0 0.0
2014-Jul-31 08:32N 38°42' W 009°10'0 0.0
2014-Jul-31 07:32N 38°42' W 009°10'0 0.0
2014-Jul-31 06:32N 38°42' W 009°10'0 0.0
2014-Jul-31 05:32N 38°42' W 009°10'0 0.0
2014-Jul-31 04:32N 38°42' W 009°10'0 0.0
2014-Jul-31 03:32N 38°42' W 009°10'0 0.0
2014-Jul-31 02:32N 38°42' W 009°10'0 0.0
2014-Jul-31 01:32N 38°42' W 009°10'0 0.0
2014-Jul-31 00:32N 38°42' W 009°10'0 0.0
2014-Jul-30 23:32N 38°42' W 009°10'0 0.0
2014-Jul-30 22:32N 38°42' W 009°10'0 0.0
2014-Jul-30 21:32N 38°42' W 009°10'0 0.0
2014-Jul-30 20:32N 38°42' W 009°10'0 0.0
2014-Jul-30 19:32N 38°42' W 009°10'0 0.0
2014-Jul-30 18:32N 38°42' W 009°10'0 0.0
2014-Jul-30 17:32N 38°42' W 009°10'0 0.0
2014-Jul-30 16:32N 38°42' W 009°10'0 0.0
2014-Jul-30 15:32N 38°42' W 009°10'0 0.0
2014-Jul-30 14:32N 38°42' W 009°10'0 0.0
2014-Jul-30 13:32N 38°42' W 009°10'1 0.8
2014-Jul-30 12:33N 38°41' W 009°11'9 9.4
2014-Jul-30 11:33N 38°38' W 009°22'1212.2
2014-Jul-30 10:33N 38°38' W 009°37'1111.1
2014-Jul-30 09:34N 38°48' W 009°44'1414.3
2014-Jul-30 08:33N 39°02' W 009°44'1413.5
2014-Jul-30 07:33N 39°16' W 009°44'1211.8
2014-Jul-30 06:33N 39°28' W 009°44'2411.9
2014-Jul-30 04:33N 39°50' W 009°33'11 0.5
2014-Jul-29 06:07N 40°00' W 009°32'8 7.9
2014-Jul-29 05:10N 39°54' W 009°37'7 7.7
2014-Jul-29 04:13N 39°47' W 009°40'6 7.9
2014-Jul-29 03:30N 39°42' W 009°42'10 8.2
2014-Jul-29 02:16N 39°33' W 009°48'8 8.7
2014-Jul-29 01:24N 39°25' W 009°50'8 9.9
2014-Jul-29 00:32N 39°17' W 009°50'1010.1
2014-Jul-28 23:33N 39°07' W 009°50'1110.4
2014-Jul-28 22:32N 38°56' W 009°51'1010.1
2014-Jul-28 21:33N 38°46' W 009°52'1010.0
2014-Jul-28 20:30N 38°36' W 009°49'1010.5
2014-Jul-28 19:33N 38°26' W 009°46'1110.5
2014-Jul-28 18:33N 38°16' W 009°43'1111.0
2014-Jul-28 17:33N 38°05' W 009°40'1110.6
2014-Jul-28 16:33N 37°55' W 009°37'1111.1
2014-Jul-28 15:33N 37°44' W 009°34'1111.4
2014-Jul-28 14:33N 37°33' W 009°31'1211.4
2014-Jul-28 13:31N 37°22' W 009°27'1311.0
2014-Jul-28 12:20N 37°09' W 009°23'810.9
2014-Jul-28 11:33N 37°01' W 009°21'1110.8
2014-Jul-28 10:32N 36°50' W 009°16'1111.0
2014-Jul-28 09:33N 36°43' W 009°06'1111.1
2014-Jul-28 08:33N 36°40' W 008°53'1111.0
2014-Jul-28 07:33N 36°36' W 008°40'1110.8
2014-Jul-28 06:33N 36°33' W 008°27'1210.9
2014-Jul-28 05:29N 36°30' W 008°13'1110.7
2014-Jul-28 04:26N 36°26' W 008°00'1010.8
2014-Jul-28 03:30N 36°23' W 007°48'1110.6
2014-Jul-28 02:29N 36°20' W 007°35'1510.8
2014-Jul-28 01:05N 36°15' W 007°17'811.4
2014-Jul-28 00:24N 36°12' W 007°08'1011.5
2014-Jul-27 23:33N 36°10' W 006°57'1111.4
2014-Jul-27 22:33N 36°07' W 006°43'1111.3
2014-Jul-27 21:33N 36°03' W 006°30'1611.0
2014-Jul-27 20:05N 35°58' W 006°11'810.2
2014-Jul-27 19:17N 35°58' W 006°01'42 0.9
2014-Jul-25 18:28N 36°06' W 005°11'10 5.1
2014-Jul-25 16:33N 36°02' W 005°21'1313.3
2014-Jul-25 15:33N 35°55' W 005°36'1414.4
2014-Jul-25 14:33N 35°54' W 005°53'1513.4
2014-Jul-25 13:26N 35°53' W 006°12'1213.1
2014-Jul-25 12:30N 35°56' W 006°26'1312.2
2014-Jul-25 11:24N 35°60' W 006°42'1311.9
2014-Jul-25 10:18N 36°03' W 006°58'1211.7
2014-Jul-25 09:14N 36°07' W 007°13'811.6
2014-Jul-25 08:33N 36°09' W 007°22'8211.7
2014-Jul-25 01:33N 36°30' W 009°01'1212.0
2014-Jul-25 00:32N 36°33' W 009°15'1211.7
2014-Jul-24 23:31N 36°42' W 009°26'1211.6
2014-Jul-24 22:27N 36°52' W 009°33'1312.4
2014-Jul-24 21:22N 37°06' W 009°35'1412.6
2014-Jul-24 20:13N 37°20' W 009°33'912.6
2014-Jul-24 19:29N 37°30' W 009°32'1213.0
2014-Jul-24 18:33N 37°42' W 009°31'1413.3
2014-Jul-24 17:28N 37°56' W 009°29'1112.3
2014-Jul-24 16:33N 38°07' W 009°27'1211.9
2014-Jul-24 15:33N 38°19' W 009°26'1212.4
2014-Jul-24 14:33N 38°31' W 009°24'1111.4
2014-Jul-24 13:33N 38°41' W 009°17'6 5.5
2014-Jul-24 12:33N 38°42' W 009°10'0 0.0
2014-Jul-24 11:29N 38°42' W 009°10'0 0.0
2014-Jul-24 10:32N 38°42' W 009°10'0 0.0
2014-Jul-24 09:33N 38°42' W 009°10'0 0.0
2014-Jul-24 08:33N 38°42' W 009°10'0 0.0
2014-Jul-24 07:33N 38°42' W 009°10'0 0.0
2014-Jul-24 06:30N 38°42' W 009°10'0 0.0
2014-Jul-24 05:33N 38°42' W 009°10'0 0.0
2014-Jul-24 04:33N 38°42' W 009°10'0 0.0
2014-Jul-24 03:32N 38°42' W 009°10'0 0.0
2014-Jul-24 02:32N 38°42' W 009°10'0 0.0
2014-Jul-24 01:33N 38°42' W 009°10'0 0.0
2014-Jul-24 00:33N 38°42' W 009°10'0 0.0
2014-Jul-23 23:30N 38°42' W 009°10'0 0.0
2014-Jul-23 22:30N 38°42' W 009°10'0 0.0
2014-Jul-23 21:33N 38°42' W 009°10'0 0.0
2014-Jul-23 20:33N 38°42' W 009°10'0 0.0
2014-Jul-23 19:32N 38°42' W 009°10'0 0.0
2014-Jul-23 18:33N 38°42' W 009°10'0 0.0
2014-Jul-23 17:33N 38°42' W 009°10'0 0.0
2014-Jul-23 16:33N 38°42' W 009°10'0 0.4
2014-Jul-23 15:33N 38°42' W 009°10'9 9.1
2014-Jul-23 14:33N 38°38' W 009°21'1212.5
2014-Jul-23 13:33N 38°38' W 009°37'1211.3
2014-Jul-23 12:29N 38°49' W 009°44'1513.7
2014-Jul-23 11:22N 39°04' W 009°44'1113.4
2014-Jul-23 10:33N 39°15' W 009°44'1413.1
2014-Jul-23 09:31N 39°29' W 009°44'2611.9
2014-Jul-23 07:19N 39°53' W 009°31'  

Dump ship's entire track history